sensor_id;sensor_type;location;lat;lon;timestamp;temperature;humidity
19555;DHT22;9924;50.828;6.440;2024-01-06T00:02:17;6.30;99.90
19555;DHT22;9924;50.828;6.440;2024-01-06T00:04:43;6.30;99.90
19555;DHT22;9924;50.828;6.440;2024-01-06T00:07:08;6.30;99.90
19555;DHT22;9924;50.828;6.440;2024-01-06T00:09:34;6.30;99.90
19555;DHT22;9924;50.828;6.440;2024-01-06T00:12:00;6.30;99.90
19555;DHT22;9924;50.828;6.440;2024-01-06T00:14:27;6.30;99.90
19555;DHT22;9924;50.828;6.440;2024-01-06T00:16:53;6.30;99.90
19555;DHT22;9924;50.828;6.440;2024-01-06T00:19:18;6.30;99.90
19555;DHT22;9924;50.828;6.440;2024-01-06T00:21:44;6.30;99.90
19555;DHT22;9924;50.828;6.440;2024-01-06T00:24:09;6.30;99.90
19555;DHT22;9924;50.828;6.440;2024-01-06T00:26:35;6.30;99.90
19555;DHT22;9924;50.828;6.440;2024-01-06T00:29:01;6.30;99.90
19555;DHT22;9924;50.828;6.440;2024-01-06T00:31:27;6.30;99.90
19555;DHT22;9924;50.828;6.440;2024-01-06T00:33:52;6.30;99.90
19555;DHT22;9924;50.828;6.440;2024-01-06T00:36:18;6.20;99.90
19555;DHT22;9924;50.828;6.440;2024-01-06T00:38:43;6.30;99.90
19555;DHT22;9924;50.828;6.440;2024-01-06T00:41:09;6.20;99.90
19555;DHT22;9924;50.828;6.440;2024-01-06T00:43:35;6.30;99.90
19555;DHT22;9924;50.828;6.440;2024-01-06T00:46:00;6.30;99.90
19555;DHT22;9924;50.828;6.440;2024-01-06T00:48:26;6.30;99.90
19555;DHT22;9924;50.828;6.440;2024-01-06T00:50:52;6.30;99.90
19555;DHT22;9924;50.828;6.440;2024-01-06T00:53:17;6.30;99.90
19555;DHT22;9924;50.828;6.440;2024-01-06T00:55:43;6.30;99.90
19555;DHT22;9924;50.828;6.440;2024-01-06T00:58:09;6.40;99.90
19555;DHT22;9924;50.828;6.440;2024-01-06T01:00:34;6.40;99.90
19555;DHT22;9924;50.828;6.440;2024-01-06T01:03:00;6.50;99.90
19555;DHT22;9924;50.828;6.440;2024-01-06T01:05:26;6.50;99.90
19555;DHT22;9924;50.828;6.440;2024-01-06T01:07:51;6.50;99.90
19555;DHT22;9924;50.828;6.440;2024-01-06T01:10:17;6.50;99.90
19555;DHT22;9924;50.828;6.440;2024-01-06T01:12:43;6.60;99.90
19555;DHT22;9924;50.828;6.440;2024-01-06T01:15:08;6.60;99.90
19555;DHT22;9924;50.828;6.440;2024-01-06T01:17:34;6.60;99.90
19555;DHT22;9924;50.828;6.440;2024-01-06T01:20:00;6.60;99.90
19555;DHT22;9924;50.828;6.440;2024-01-06T01:22:26;6.60;99.90
19555;DHT22;9924;50.828;6.440;2024-01-06T01:24:51;6.60;99.90
19555;DHT22;9924;50.828;6.440;2024-01-06T01:27:17;6.60;99.90
19555;DHT22;9924;50.828;6.440;2024-01-06T01:29:43;6.60;99.90
19555;DHT22;9924;50.828;6.440;2024-01-06T01:32:08;6.70;99.90
19555;DHT22;9924;50.828;6.440;2024-01-06T01:34:34;6.70;99.90
19555;DHT22;9924;50.828;6.440;2024-01-06T01:37:00;6.70;99.90
19555;DHT22;9924;50.828;6.440;2024-01-06T01:39:26;6.70;99.90
19555;DHT22;9924;50.828;6.440;2024-01-06T01:41:51;6.80;99.90
19555;DHT22;9924;50.828;6.440;2024-01-06T01:44:17;6.80;99.90
19555;DHT22;9924;50.828;6.440;2024-01-06T01:46:43;6.80;99.90
19555;DHT22;9924;50.828;6.440;2024-01-06T01:49:08;6.80;99.90
19555;DHT22;9924;50.828;6.440;2024-01-06T01:51:35;6.80;99.90
19555;DHT22;9924;50.828;6.440;2024-01-06T01:54:01;6.70;99.90
19555;DHT22;9924;50.828;6.440;2024-01-06T01:56:30;6.70;99.90
19555;DHT22;9924;50.828;6.440;2024-01-06T01:59:03;6.60;99.90
19555;DHT22;9924;50.828;6.440;2024-01-06T02:01:30;6.60;99.90
19555;DHT22;9924;50.828;6.440;2024-01-06T02:03:57;6.70;99.90
19555;DHT22;9924;50.828;6.440;2024-01-06T02:06:23;6.70;99.90
19555;DHT22;9924;50.828;6.440;2024-01-06T02:08:49;6.70;99.90
19555;DHT22;9924;50.828;6.440;2024-01-06T02:11:14;6.70;99.90
19555;DHT22;9924;50.828;6.440;2024-01-06T02:13:40;6.70;99.90
19555;DHT22;9924;50.828;6.440;2024-01-06T02:16:06;6.70;99.90
19555;DHT22;9924;50.828;6.440;2024-01-06T02:18:32;6.80;99.90
19555;DHT22;9924;50.828;6.440;2024-01-06T02:21:00;6.80;99.90
19555;DHT22;9924;50.828;6.440;2024-01-06T02:23:27;6.90;99.90
19555;DHT22;9924;50.828;6.440;2024-01-06T02:25:53;6.90;99.90
19555;DHT22;9924;50.828;6.440;2024-01-06T02:28:19;6.90;99.90
19555;DHT22;9924;50.828;6.440;2024-01-06T02:30:45;6.90;99.90
19555;DHT22;9924;50.828;6.440;2024-01-06T02:33:11;6.90;99.90
19555;DHT22;9924;50.828;6.440;2024-01-06T02:35:36;6.90;99.90
19555;DHT22;9924;50.828;6.440;2024-01-06T02:38:02;6.90;99.90
19555;DHT22;9924;50.828;6.440;2024-01-06T02:40:28;6.90;99.90
19555;DHT22;9924;50.828;6.440;2024-01-06T02:42:54;6.90;99.90
19555;DHT22;9924;50.828;6.440;2024-01-06T02:45:20;6.80;99.90
19555;DHT22;9924;50.828;6.440;2024-01-06T02:47:45;6.90;99.90
19555;DHT22;9924;50.828;6.440;2024-01-06T02:50:11;6.90;99.90
19555;DHT22;9924;50.828;6.440;2024-01-06T02:52:37;6.90;99.90
19555;DHT22;9924;50.828;6.440;2024-01-06T02:55:02;6.90;99.90
19555;DHT22;9924;50.828;6.440;2024-01-06T02:57:30;6.90;99.90
19555;DHT22;9924;50.828;6.440;2024-01-06T02:59:55;6.90;99.90
19555;DHT22;9924;50.828;6.440;2024-01-06T03:02:21;6.90;99.90
19555;DHT22;9924;50.828;6.440;2024-01-06T03:04:47;6.90;99.90
19555;DHT22;9924;50.828;6.440;2024-01-06T03:07:13;6.90;99.90
19555;DHT22;9924;50.828;6.440;2024-01-06T03:09:38;6.90;99.90
19555;DHT22;9924;50.828;6.440;2024-01-06T03:12:08;7.00;99.90
19555;DHT22;9924;50.828;6.440;2024-01-06T03:14:37;7.00;99.90
19555;DHT22;9924;50.828;6.440;2024-01-06T03:17:03;7.00;99.90
19555;DHT22;9924;50.828;6.440;2024-01-06T03:19:30;7.00;99.90
19555;DHT22;9924;50.828;6.440;2024-01-06T03:21:56;7.00;99.90
19555;DHT22;9924;50.828;6.440;2024-01-06T03:24:23;7.10;99.90
19555;DHT22;9924;50.828;6.440;2024-01-06T03:26:48;7.10;99.90
19555;DHT22;9924;50.828;6.440;2024-01-06T03:29:14;7.10;99.90
19555;DHT22;9924;50.828;6.440;2024-01-06T03:31:46;7.20;99.90
19555;DHT22;9924;50.828;6.440;2024-01-06T03:34:12;7.10;99.90
19555;DHT22;9924;50.828;6.440;2024-01-06T03:36:38;7.10;99.90
19555;DHT22;9924;50.828;6.440;2024-01-06T03:39:04;7.20;99.90
19555;DHT22;9924;50.828;6.440;2024-01-06T03:41:30;7.10;99.90
19555;DHT22;9924;50.828;6.440;2024-01-06T03:43:56;7.10;99.90
19555;DHT22;9924;50.828;6.440;2024-01-06T03:46:22;7.10;99.90
19555;DHT22;9924;50.828;6.440;2024-01-06T03:48:48;7.10;99.90
19555;DHT22;9924;50.828;6.440;2024-01-06T03:51:14;7.10;99.90
19555;DHT22;9924;50.828;6.440;2024-01-06T03:53:40;7.10;99.90
19555;DHT22;9924;50.828;6.440;2024-01-06T03:56:06;7.10;99.90
19555;DHT22;9924;50.828;6.440;2024-01-06T03:58:32;7.00;99.90
19555;DHT22;9924;50.828;6.440;2024-01-06T04:00:58;7.10;99.90
19555;DHT22;9924;50.828;6.440;2024-01-06T04:03:23;7.10;99.90
19555;DHT22;9924;50.828;6.440;2024-01-06T04:05:49;7.10;99.90
19555;DHT22;9924;50.828;6.440;2024-01-06T04:08:14;7.10;99.90
19555;DHT22;9924;50.828;6.440;2024-01-06T04:10:40;7.00;99.90
19555;DHT22;9924;50.828;6.440;2024-01-06T04:13:07;6.80;99.90
19555;DHT22;9924;50.828;6.440;2024-01-06T04:15:33;6.70;99.90
19555;DHT22;9924;50.828;6.440;2024-01-06T04:18:02;6.60;99.90
19555;DHT22;9924;50.828;6.440;2024-01-06T04:20:28;6.60;99.90
19555;DHT22;9924;50.828;6.440;2024-01-06T04:22:54;6.50;99.90
19555;DHT22;9924;50.828;6.440;2024-01-06T04:25:20;6.50;99.90
19555;DHT22;9924;50.828;6.440;2024-01-06T04:27:46;6.40;99.90
19555;DHT22;9924;50.828;6.440;2024-01-06T04:30:13;6.40;99.90
19555;DHT22;9924;50.828;6.440;2024-01-06T04:32:39;6.40;99.90
19555;DHT22;9924;50.828;6.440;2024-01-06T04:35:05;6.30;99.90
19555;DHT22;9924;50.828;6.440;2024-01-06T04:37:30;6.40;99.90
19555;DHT22;9924;50.828;6.440;2024-01-06T04:39:56;6.30;99.90
19555;DHT22;9924;50.828;6.440;2024-01-06T04:42:22;6.40;99.90
19555;DHT22;9924;50.828;6.440;2024-01-06T04:44:48;6.40;99.90
19555;DHT22;9924;50.828;6.440;2024-01-06T04:47:14;6.40;99.90
19555;DHT22;9924;50.828;6.440;2024-01-06T04:49:40;6.30;99.90
19555;DHT22;9924;50.828;6.440;2024-01-06T04:52:05;6.30;99.90
19555;DHT22;9924;50.828;6.440;2024-01-06T04:54:31;6.40;99.90
19555;DHT22;9924;50.828;6.440;2024-01-06T04:56:58;6.30;99.90
19555;DHT22;9924;50.828;6.440;2024-01-06T04:59:24;6.30;99.90
19555;DHT22;9924;50.828;6.440;2024-01-06T05:01:51;6.30;99.90
19555;DHT22;9924;50.828;6.440;2024-01-06T05:04:17;6.30;99.90
19555;DHT22;9924;50.828;6.440;2024-01-06T05:06:43;6.30;99.90
19555;DHT22;9924;50.828;6.440;2024-01-06T05:09:09;6.30;99.90
19555;DHT22;9924;50.828;6.440;2024-01-06T05:11:35;6.30;99.90
19555;DHT22;9924;50.828;6.440;2024-01-06T05:14:00;6.30;99.90
19555;DHT22;9924;50.828;6.440;2024-01-06T05:16:26;6.20;99.90
19555;DHT22;9924;50.828;6.440;2024-01-06T05:18:53;6.20;99.90
19555;DHT22;9924;50.828;6.440;2024-01-06T05:21:19;6.20;99.90
19555;DHT22;9924;50.828;6.440;2024-01-06T05:23:45;6.20;99.90
19555;DHT22;9924;50.828;6.440;2024-01-06T05:26:10;6.20;99.90
19555;DHT22;9924;50.828;6.440;2024-01-06T05:28:37;6.20;99.90
19555;DHT22;9924;50.828;6.440;2024-01-06T05:31:03;6.20;99.90
19555;DHT22;9924;50.828;6.440;2024-01-06T05:33:28;6.20;99.90
19555;DHT22;9924;50.828;6.440;2024-01-06T05:35:54;6.20;99.90
19555;DHT22;9924;50.828;6.440;2024-01-06T05:38:20;6.20;99.90
19555;DHT22;9924;50.828;6.440;2024-01-06T05:40:45;6.20;99.90
19555;DHT22;9924;50.828;6.440;2024-01-06T05:43:11;6.20;99.90
19555;DHT22;9924;50.828;6.440;2024-01-06T05:45:36;6.30;99.90
19555;DHT22;9924;50.828;6.440;2024-01-06T05:48:04;6.30;99.90
19555;DHT22;9924;50.828;6.440;2024-01-06T05:50:30;6.20;99.90
19555;DHT22;9924;50.828;6.440;2024-01-06T05:52:55;6.20;99.90
19555;DHT22;9924;50.828;6.440;2024-01-06T05:55:23;6.10;99.90
19555;DHT22;9924;50.828;6.440;2024-01-06T05:57:48;6.10;99.90
19555;DHT22;9924;50.828;6.440;2024-01-06T06:00:14;6.20;99.90
19555;DHT22;9924;50.828;6.440;2024-01-06T06:02:40;6.10;99.90
19555;DHT22;9924;50.828;6.440;2024-01-06T06:05:06;6.00;99.90
19555;DHT22;9924;50.828;6.440;2024-01-06T06:07:31;6.00;99.90
19555;DHT22;9924;50.828;6.440;2024-01-06T06:09:57;6.00;99.90
19555;DHT22;9924;50.828;6.440;2024-01-06T06:12:23;6.00;99.90
19555;DHT22;9924;50.828;6.440;2024-01-06T06:14:48;6.00;99.90
19555;DHT22;9924;50.828;6.440;2024-01-06T06:17:14;6.00;99.90
19555;DHT22;9924;50.828;6.440;2024-01-06T06:19:40;5.90;99.90
19555;DHT22;9924;50.828;6.440;2024-01-06T06:22:07;5.90;99.90
19555;DHT22;9924;50.828;6.440;2024-01-06T06:24:33;6.00;99.90
19555;DHT22;9924;50.828;6.440;2024-01-06T06:26:59;5.90;99.90
19555;DHT22;9924;50.828;6.440;2024-01-06T06:29:24;5.90;99.90
19555;DHT22;9924;50.828;6.440;2024-01-06T06:31:50;5.90;99.90
19555;DHT22;9924;50.828;6.440;2024-01-06T06:34:15;6.00;99.90
19555;DHT22;9924;50.828;6.440;2024-01-06T06:36:41;5.90;99.90
19555;DHT22;9924;50.828;6.440;2024-01-06T06:39:07;5.90;99.90
19555;DHT22;9924;50.828;6.440;2024-01-06T06:41:32;5.80;99.90
19555;DHT22;9924;50.828;6.440;2024-01-06T06:43:58;5.70;99.90
19555;DHT22;9924;50.828;6.440;2024-01-06T06:46:25;5.70;99.90
19555;DHT22;9924;50.828;6.440;2024-01-06T06:48:51;5.60;99.90
19555;DHT22;9924;50.828;6.440;2024-01-06T06:51:16;5.50;99.90
19555;DHT22;9924;50.828;6.440;2024-01-06T06:53:42;5.50;99.90
19555;DHT22;9924;50.828;6.440;2024-01-06T06:56:08;5.40;99.90
19555;DHT22;9924;50.828;6.440;2024-01-06T06:58:33;5.30;99.90
19555;DHT22;9924;50.828;6.440;2024-01-06T07:00:59;5.20;99.90
19555;DHT22;9924;50.828;6.440;2024-01-06T07:03:24;5.20;99.90
19555;DHT22;9924;50.828;6.440;2024-01-06T07:05:52;5.10;99.90
19555;DHT22;9924;50.828;6.440;2024-01-06T07:08:17;5.00;99.90
19555;DHT22;9924;50.828;6.440;2024-01-06T07:10:43;5.00;99.90
19555;DHT22;9924;50.828;6.440;2024-01-06T07:13:09;4.90;99.90
19555;DHT22;9924;50.828;6.440;2024-01-06T07:15:35;4.80;99.90
19555;DHT22;9924;50.828;6.440;2024-01-06T07:18:00;4.90;99.90
19555;DHT22;9924;50.828;6.440;2024-01-06T07:20:26;4.90;99.90
19555;DHT22;9924;50.828;6.440;2024-01-06T07:22:51;4.80;99.90
19555;DHT22;9924;50.828;6.440;2024-01-06T07:25:17;4.80;99.90
19555;DHT22;9924;50.828;6.440;2024-01-06T07:27:43;4.80;99.90
19555;DHT22;9924;50.828;6.440;2024-01-06T07:30:09;4.70;99.90
19555;DHT22;9924;50.828;6.440;2024-01-06T07:32:34;4.70;99.90
19555;DHT22;9924;50.828;6.440;2024-01-06T07:35:00;4.80;99.90
19555;DHT22;9924;50.828;6.440;2024-01-06T07:37:26;4.70;99.90
19555;DHT22;9924;50.828;6.440;2024-01-06T07:39:51;4.60;99.90
19555;DHT22;9924;50.828;6.440;2024-01-06T07:42:18;4.60;99.90
19555;DHT22;9924;50.828;6.440;2024-01-06T07:44:43;4.60;99.90
19555;DHT22;9924;50.828;6.440;2024-01-06T07:47:10;4.60;99.90
19555;DHT22;9924;50.828;6.440;2024-01-06T07:49:36;4.60;99.90
19555;DHT22;9924;50.828;6.440;2024-01-06T07:52:01;4.60;99.90
19555;DHT22;9924;50.828;6.440;2024-01-06T07:54:27;4.60;99.90
19555;DHT22;9924;50.828;6.440;2024-01-06T07:56:53;4.60;99.90
19555;DHT22;9924;50.828;6.440;2024-01-06T07:59:19;4.60;99.90
19555;DHT22;9924;50.828;6.440;2024-01-06T08:01:44;4.60;99.90
19555;DHT22;9924;50.828;6.440;2024-01-06T08:04:10;4.70;99.90
19555;DHT22;9924;50.828;6.440;2024-01-06T08:06:36;4.70;99.90
19555;DHT22;9924;50.828;6.440;2024-01-06T08:09:02;4.70;99.90
19555;DHT22;9924;50.828;6.440;2024-01-06T08:11:28;4.60;99.90
19555;DHT22;9924;50.828;6.440;2024-01-06T08:13:54;4.70;99.90
19555;DHT22;9924;50.828;6.440;2024-01-06T08:16:20;4.60;99.90
19555;DHT22;9924;50.828;6.440;2024-01-06T08:18:46;4.60;99.90
19555;DHT22;9924;50.828;6.440;2024-01-06T08:21:12;4.60;99.90
19555;DHT22;9924;50.828;6.440;2024-01-06T08:23:37;4.60;99.90
19555;DHT22;9924;50.828;6.440;2024-01-06T08:26:04;4.60;99.90
19555;DHT22;9924;50.828;6.440;2024-01-06T08:28:29;4.50;99.90
19555;DHT22;9924;50.828;6.440;2024-01-06T08:30:55;4.50;99.90
19555;DHT22;9924;50.828;6.440;2024-01-06T08:33:21;4.30;99.90
19555;DHT22;9924;50.828;6.440;2024-01-06T08:35:47;4.30;99.90
19555;DHT22;9924;50.828;6.440;2024-01-06T08:38:12;4.30;99.90
19555;DHT22;9924;50.828;6.440;2024-01-06T08:40:38;4.40;99.90
19555;DHT22;9924;50.828;6.440;2024-01-06T08:43:04;4.30;99.90
19555;DHT22;9924;50.828;6.440;2024-01-06T08:45:29;4.30;99.90
19555;DHT22;9924;50.828;6.440;2024-01-06T08:47:56;4.30;99.90
19555;DHT22;9924;50.828;6.440;2024-01-06T08:50:22;4.40;99.90
19555;DHT22;9924;50.828;6.440;2024-01-06T08:52:47;4.40;99.90
19555;DHT22;9924;50.828;6.440;2024-01-06T08:55:13;4.40;99.90
19555;DHT22;9924;50.828;6.440;2024-01-06T08:57:39;4.40;99.90
19555;DHT22;9924;50.828;6.440;2024-01-06T09:00:05;4.40;99.90
19555;DHT22;9924;50.828;6.440;2024-01-06T09:02:31;4.40;99.90
19555;DHT22;9924;50.828;6.440;2024-01-06T09:04:56;4.50;99.90
19555;DHT22;9924;50.828;6.440;2024-01-06T09:07:22;4.50;99.90
19555;DHT22;9924;50.828;6.440;2024-01-06T09:09:48;4.40;99.90
19555;DHT22;9924;50.828;6.440;2024-01-06T09:12:13;4.40;99.90
19555;DHT22;9924;50.828;6.440;2024-01-06T09:14:39;4.50;99.90
19555;DHT22;9924;50.828;6.440;2024-01-06T09:17:05;4.50;99.90
19555;DHT22;9924;50.828;6.440;2024-01-06T09:19:31;4.40;99.90
19555;DHT22;9924;50.828;6.440;2024-01-06T09:21:57;4.40;99.90
19555;DHT22;9924;50.828;6.440;2024-01-06T09:24:22;4.40;99.90
19555;DHT22;9924;50.828;6.440;2024-01-06T09:26:48;4.50;99.90
19555;DHT22;9924;50.828;6.440;2024-01-06T09:29:16;4.50;99.90
19555;DHT22;9924;50.828;6.440;2024-01-06T09:31:42;4.50;99.90
19555;DHT22;9924;50.828;6.440;2024-01-06T09:34:10;4.50;99.90
19555;DHT22;9924;50.828;6.440;2024-01-06T09:36:35;4.60;99.90
19555;DHT22;9924;50.828;6.440;2024-01-06T09:39:01;4.60;99.90
19555;DHT22;9924;50.828;6.440;2024-01-06T09:41:27;4.60;99.90
19555;DHT22;9924;50.828;6.440;2024-01-06T09:43:53;4.70;99.90
19555;DHT22;9924;50.828;6.440;2024-01-06T09:46:25;4.70;99.90
19555;DHT22;9924;50.828;6.440;2024-01-06T09:48:57;4.80;99.90
19555;DHT22;9924;50.828;6.440;2024-01-06T09:51:24;4.80;99.90
19555;DHT22;9924;50.828;6.440;2024-01-06T09:54:02;4.80;99.90
19555;DHT22;9924;50.828;6.440;2024-01-06T09:56:29;4.70;99.90
19555;DHT22;9924;50.828;6.440;2024-01-06T09:58:55;4.70;99.90
19555;DHT22;9924;50.828;6.440;2024-01-06T10:01:22;4.70;99.90
19555;DHT22;9924;50.828;6.440;2024-01-06T10:03:47;4.60;99.90
19555;DHT22;9924;50.828;6.440;2024-01-06T10:06:14;4.50;99.90
19555;DHT22;9924;50.828;6.440;2024-01-06T10:08:44;4.60;99.90
19555;DHT22;9924;50.828;6.440;2024-01-06T10:11:09;4.60;99.90
19555;DHT22;9924;50.828;6.440;2024-01-06T10:13:36;4.60;99.90
19555;DHT22;9924;50.828;6.440;2024-01-06T10:16:04;4.70;99.90
19555;DHT22;9924;50.828;6.440;2024-01-06T10:18:31;4.70;99.90
19555;DHT22;9924;50.828;6.440;2024-01-06T10:20:57;4.70;99.90
19555;DHT22;9924;50.828;6.440;2024-01-06T10:23:24;4.70;99.90
19555;DHT22;9924;50.828;6.440;2024-01-06T10:25:53;4.80;99.90
19555;DHT22;9924;50.828;6.440;2024-01-06T10:28:20;4.80;99.90
19555;DHT22;9924;50.828;6.440;2024-01-06T10:30:45;4.70;99.90
19555;DHT22;9924;50.828;6.440;2024-01-06T10:33:11;4.70;99.90
19555;DHT22;9924;50.828;6.440;2024-01-06T10:35:39;4.60;99.90
19555;DHT22;9924;50.828;6.440;2024-01-06T10:38:07;4.70;99.90
19555;DHT22;9924;50.828;6.440;2024-01-06T10:40:32;4.60;99.90
19555;DHT22;9924;50.828;6.440;2024-01-06T10:43:00;4.60;99.90
19555;DHT22;9924;50.828;6.440;2024-01-06T10:45:28;4.60;99.90
19555;DHT22;9924;50.828;6.440;2024-01-06T10:47:55;4.70;99.90
19555;DHT22;9924;50.828;6.440;2024-01-06T10:50:22;4.70;99.90
19555;DHT22;9924;50.828;6.440;2024-01-06T10:52:48;4.70;99.90
19555;DHT22;9924;50.828;6.440;2024-01-06T10:55:15;4.60;99.90
19555;DHT22;9924;50.828;6.440;2024-01-06T10:57:46;4.60;99.90
19555;DHT22;9924;50.828;6.440;2024-01-06T11:00:12;4.60;99.90
19555;DHT22;9924;50.828;6.440;2024-01-06T11:02:39;4.60;99.90
19555;DHT22;9924;50.828;6.440;2024-01-06T11:05:05;4.60;99.90
19555;DHT22;9924;50.828;6.440;2024-01-06T11:07:36;4.60;99.90
19555;DHT22;9924;50.828;6.440;2024-01-06T11:10:14;4.60;99.90
19555;DHT22;9924;50.828;6.440;2024-01-06T11:12:44;4.50;99.90
19555;DHT22;9924;50.828;6.440;2024-01-06T11:15:09;4.60;99.90
19555;DHT22;9924;50.828;6.440;2024-01-06T11:20:19;4.60;99.90
19555;DHT22;9924;50.828;6.440;2024-01-06T11:22:45;4.50;99.90
19555;DHT22;9924;50.828;6.440;2024-01-06T11:25:19;4.50;99.90
19555;DHT22;9924;50.828;6.440;2024-01-06T11:27:46;4.60;99.90
19555;DHT22;9924;50.828;6.440;2024-01-06T11:30:24;4.50;99.90
19555;DHT22;9924;50.828;6.440;2024-01-06T11:32:54;4.50;99.90
19555;DHT22;9924;50.828;6.440;2024-01-06T11:35:21;4.60;99.90
19555;DHT22;9924;50.828;6.440;2024-01-06T11:43:10;4.60;99.90
19555;DHT22;9924;50.828;6.440;2024-01-06T11:45:37;4.70;99.90
19555;DHT22;9924;50.828;6.440;2024-01-06T11:48:05;4.70;99.90
19555;DHT22;9924;50.828;6.440;2024-01-06T11:50:32;4.70;99.90
19555;DHT22;9924;50.828;6.440;2024-01-06T11:52:58;4.70;99.90
19555;DHT22;9924;50.828;6.440;2024-01-06T11:55:26;4.80;99.90
19555;DHT22;9924;50.828;6.440;2024-01-06T11:57:57;4.80;99.90
19555;DHT22;9924;50.828;6.440;2024-01-06T12:00:27;4.70;99.90
19555;DHT22;9924;50.828;6.440;2024-01-06T12:02:59;4.60;99.90
19555;DHT22;9924;50.828;6.440;2024-01-06T12:05:27;4.60;99.90
19555;DHT22;9924;50.828;6.440;2024-01-06T12:07:59;4.70;99.90
19555;DHT22;9924;50.828;6.440;2024-01-06T12:10:26;4.60;99.90
19555;DHT22;9924;50.828;6.440;2024-01-06T12:12:59;4.60;99.90
19555;DHT22;9924;50.828;6.440;2024-01-06T12:15:26;4.60;99.90
19555;DHT22;9924;50.828;6.440;2024-01-06T12:17:52;4.60;99.90
19555;DHT22;9924;50.828;6.440;2024-01-06T12:20:18;4.60;99.90
19555;DHT22;9924;50.828;6.440;2024-01-06T12:22:44;4.60;99.90
19555;DHT22;9924;50.828;6.440;2024-01-06T12:25:10;4.60;99.90
19555;DHT22;9924;50.828;6.440;2024-01-06T12:27:35;4.60;99.90
19555;DHT22;9924;50.828;6.440;2024-01-06T12:30:01;4.60;99.90
19555;DHT22;9924;50.828;6.440;2024-01-06T12:32:28;4.60;99.90
19555;DHT22;9924;50.828;6.440;2024-01-06T12:34:54;4.50;99.90
19555;DHT22;9924;50.828;6.440;2024-01-06T12:37:22;4.50;99.90
19555;DHT22;9924;50.828;6.440;2024-01-06T12:39:48;4.50;99.90
19555;DHT22;9924;50.828;6.440;2024-01-06T12:42:15;4.40;99.90
19555;DHT22;9924;50.828;6.440;2024-01-06T12:44:42;4.40;99.90
19555;DHT22;9924;50.828;6.440;2024-01-06T12:47:08;4.30;99.90
19555;DHT22;9924;50.828;6.440;2024-01-06T12:49:34;4.30;99.90
19555;DHT22;9924;50.828;6.440;2024-01-06T12:51:59;4.30;99.90
19555;DHT22;9924;50.828;6.440;2024-01-06T12:54:25;4.30;99.90
19555;DHT22;9924;50.828;6.440;2024-01-06T12:56:51;4.20;99.90
19555;DHT22;9924;50.828;6.440;2024-01-06T12:59:16;4.20;99.90
19555;DHT22;9924;50.828;6.440;2024-01-06T13:01:42;4.20;99.90
19555;DHT22;9924;50.828;6.440;2024-01-06T13:04:08;4.20;99.90
19555;DHT22;9924;50.828;6.440;2024-01-06T13:06:34;4.10;99.90
19555;DHT22;9924;50.828;6.440;2024-01-06T13:09:00;4.20;99.90
19555;DHT22;9924;50.828;6.440;2024-01-06T13:11:31;4.20;99.90
19555;DHT22;9924;50.828;6.440;2024-01-06T13:13:57;4.10;99.90
19555;DHT22;9924;50.828;6.440;2024-01-06T13:16:23;4.10;99.90
19555;DHT22;9924;50.828;6.440;2024-01-06T13:18:48;4.00;99.90
19555;DHT22;9924;50.828;6.440;2024-01-06T13:21:14;3.90;99.90
19555;DHT22;9924;50.828;6.440;2024-01-06T13:23:40;3.90;99.90
19555;DHT22;9924;50.828;6.440;2024-01-06T13:26:05;3.90;99.90
19555;DHT22;9924;50.828;6.440;2024-01-06T13:28:31;3.90;99.90
19555;DHT22;9924;50.828;6.440;2024-01-06T13:30:57;3.80;99.90
19555;DHT22;9924;50.828;6.440;2024-01-06T13:33:23;3.80;99.90
19555;DHT22;9924;50.828;6.440;2024-01-06T13:35:48;3.70;99.90
19555;DHT22;9924;50.828;6.440;2024-01-06T13:38:14;3.60;99.90
19555;DHT22;9924;50.828;6.440;2024-01-06T13:40:41;3.70;99.90
19555;DHT22;9924;50.828;6.440;2024-01-06T13:43:07;3.60;99.90
19555;DHT22;9924;50.828;6.440;2024-01-06T13:45:35;3.60;99.90
19555;DHT22;9924;50.828;6.440;2024-01-06T13:48:01;3.60;99.90
19555;DHT22;9924;50.828;6.440;2024-01-06T13:50:27;3.70;99.90
19555;DHT22;9924;50.828;6.440;2024-01-06T13:52:53;3.70;99.90
19555;DHT22;9924;50.828;6.440;2024-01-06T13:55:20;3.60;99.90
19555;DHT22;9924;50.828;6.440;2024-01-06T13:57:45;3.60;99.90
19555;DHT22;9924;50.828;6.440;2024-01-06T14:00:11;3.70;99.90
19555;DHT22;9924;50.828;6.440;2024-01-06T14:02:41;3.70;99.90
19555;DHT22;9924;50.828;6.440;2024-01-06T14:05:06;3.70;99.90
19555;DHT22;9924;50.828;6.440;2024-01-06T14:07:34;3.70;99.90
19555;DHT22;9924;50.828;6.440;2024-01-06T14:10:00;3.60;99.90
19555;DHT22;9924;50.828;6.440;2024-01-06T14:12:26;3.60;99.90
19555;DHT22;9924;50.828;6.440;2024-01-06T14:14:51;3.60;99.90
19555;DHT22;9924;50.828;6.440;2024-01-06T14:17:17;3.60;99.90
19555;DHT22;9924;50.828;6.440;2024-01-06T14:19:43;3.60;99.90
19555;DHT22;9924;50.828;6.440;2024-01-06T14:22:08;3.60;99.90
19555;DHT22;9924;50.828;6.440;2024-01-06T14:24:34;3.60;99.90
19555;DHT22;9924;50.828;6.440;2024-01-06T14:27:02;3.50;99.90
19555;DHT22;9924;50.828;6.440;2024-01-06T14:29:29;3.60;99.90
19555;DHT22;9924;50.828;6.440;2024-01-06T14:31:55;3.60;99.90
19555;DHT22;9924;50.828;6.440;2024-01-06T14:34:21;3.60;99.90
19555;DHT22;9924;50.828;6.440;2024-01-06T14:36:47;3.50;99.90
19555;DHT22;9924;50.828;6.440;2024-01-06T14:39:15;3.60;99.90
19555;DHT22;9924;50.828;6.440;2024-01-06T14:41:41;3.60;99.90
19555;DHT22;9924;50.828;6.440;2024-01-06T14:44:07;3.70;99.90
19555;DHT22;9924;50.828;6.440;2024-01-06T14:46:33;3.70;99.90
19555;DHT22;9924;50.828;6.440;2024-01-06T14:49:01;3.60;99.90
19555;DHT22;9924;50.828;6.440;2024-01-06T14:51:27;3.60;99.90
19555;DHT22;9924;50.828;6.440;2024-01-06T14:53:53;3.60;99.90
19555;DHT22;9924;50.828;6.440;2024-01-06T14:56:20;3.60;99.90
19555;DHT22;9924;50.828;6.440;2024-01-06T14:58:46;3.50;99.90
19555;DHT22;9924;50.828;6.440;2024-01-06T15:01:12;3.50;99.90
19555;DHT22;9924;50.828;6.440;2024-01-06T15:03:37;3.40;99.90
19555;DHT22;9924;50.828;6.440;2024-01-06T15:06:03;3.40;99.90
19555;DHT22;9924;50.828;6.440;2024-01-06T15:08:29;3.40;99.90
19555;DHT22;9924;50.828;6.440;2024-01-06T15:10:54;3.50;99.90
19555;DHT22;9924;50.828;6.440;2024-01-06T15:13:20;3.50;99.90
19555;DHT22;9924;50.828;6.440;2024-01-06T15:15:45;3.40;99.90
19555;DHT22;9924;50.828;6.440;2024-01-06T15:18:13;3.40;99.90
19555;DHT22;9924;50.828;6.440;2024-01-06T15:20:39;3.40;99.90
19555;DHT22;9924;50.828;6.440;2024-01-06T15:23:05;3.50;99.90
19555;DHT22;9924;50.828;6.440;2024-01-06T15:25:31;3.40;99.90
19555;DHT22;9924;50.828;6.440;2024-01-06T15:27:57;3.40;99.90
19555;DHT22;9924;50.828;6.440;2024-01-06T15:30:22;3.30;99.90
19555;DHT22;9924;50.828;6.440;2024-01-06T15:32:49;3.20;99.90
19555;DHT22;9924;50.828;6.440;2024-01-06T15:35:15;3.30;99.90
19555;DHT22;9924;50.828;6.440;2024-01-06T15:37:40;3.30;99.90
19555;DHT22;9924;50.828;6.440;2024-01-06T15:40:07;3.30;99.90
19555;DHT22;9924;50.828;6.440;2024-01-06T15:42:33;3.40;99.90
19555;DHT22;9924;50.828;6.440;2024-01-06T15:44:59;3.40;99.90
19555;DHT22;9924;50.828;6.440;2024-01-06T15:47:24;3.40;99.90
19555;DHT22;9924;50.828;6.440;2024-01-06T15:49:50;3.40;99.90
19555;DHT22;9924;50.828;6.440;2024-01-06T15:52:16;3.40;99.90
19555;DHT22;9924;50.828;6.440;2024-01-06T15:54:49;3.30;99.90
19555;DHT22;9924;50.828;6.440;2024-01-06T15:57:15;3.30;99.90
19555;DHT22;9924;50.828;6.440;2024-01-06T15:59:40;3.30;99.90
19555;DHT22;9924;50.828;6.440;2024-01-06T16:02:06;3.30;99.90
19555;DHT22;9924;50.828;6.440;2024-01-06T16:04:32;3.30;99.90